sensor_id;sensor_type;location;lat;lon;timestamp;pressure;altitude;pressure_sealevel;temperature;humidity
2681;BME280;1350;42.134;24.708;2022-07-19T00:00:17;100051.91;;;20.64;99.13
2681;BME280;1350;42.134;24.708;2022-07-19T00:02:44;100054.75;;;20.62;99.07
2681;BME280;1350;42.134;24.708;2022-07-19T00:05:12;100048.53;;;20.62;98.31
2681;BME280;1350;42.134;24.708;2022-07-19T00:07:39;100044.50;;;20.56;98.06
2681;BME280;1350;42.134;24.708;2022-07-19T00:10:08;100049.41;;;20.51;98.90
2681;BME280;1350;42.134;24.708;2022-07-19T00:12:36;100051.75;;;20.56;98.39
2681;BME280;1350;42.134;24.708;2022-07-19T00:15:04;100052.84;;;20.53;98.70
2681;BME280;1350;42.134;24.708;2022-07-19T00:17:33;100055.59;;;20.63;98.81
2681;BME280;1350;42.134;24.708;2022-07-19T00:20:00;100059.56;;;20.59;98.97
2681;BME280;1350;42.134;24.708;2022-07-19T00:22:27;100046.97;;;20.48;100.00
2681;BME280;1350;42.134;24.708;2022-07-19T00:24:54;100046.16;;;20.48;100.00
2681;BME280;1350;42.134;24.708;2022-07-19T00:27:21;100046.72;;;20.51;100.00
2681;BME280;1350;42.134;24.708;2022-07-19T00:29:47;100045.47;;;20.35;100.00
2681;BME280;1350;42.134;24.708;2022-07-19T00:32:14;100042.69;;;20.25;100.00
2681;BME280;1350;42.134;24.708;2022-07-19T00:34:42;100037.03;;;20.28;100.00
2681;BME280;1350;42.134;24.708;2022-07-19T00:37:09;100037.50;;;20.33;100.00
2681;BME280;1350;42.134;24.708;2022-07-19T00:39:36;100041.34;;;20.31;100.00
2681;BME280;1350;42.134;24.708;2022-07-19T00:42:03;100042.63;;;20.16;100.00
2681;BME280;1350;42.134;24.708;2022-07-19T00:44:30;100036.41;;;20.04;100.00
2681;BME280;1350;42.134;24.708;2022-07-19T00:46:56;100040.22;;;20.01;100.00
2681;BME280;1350;42.134;24.708;2022-07-19T00:49:23;100048.06;;;19.93;100.00
2681;BME280;1350;42.134;24.708;2022-07-19T00:51:53;100036.25;;;19.85;100.00
2681;BME280;1350;42.134;24.708;2022-07-19T00:54:20;100040.13;;;19.92;100.00
2681;BME280;1350;42.134;24.708;2022-07-19T00:56:49;100038.69;;;19.88;100.00
2681;BME280;1350;42.134;24.708;2022-07-19T00:59:17;100037.34;;;19.82;100.00
2681;BME280;1350;42.134;24.708;2022-07-19T01:01:44;100028.53;;;19.80;100.00
2681;BME280;1350;42.134;24.708;2022-07-19T01:04:11;100031.09;;;19.82;100.00
2681;BME280;1350;42.134;24.708;2022-07-19T01:06:38;100036.34;;;19.83;100.00
2681;BME280;1350;42.134;24.708;2022-07-19T01:09:06;100034.22;;;19.98;100.00
2681;BME280;1350;42.134;24.708;2022-07-19T01:11:33;100039.72;;;19.96;100.00
2681;BME280;1350;42.134;24.708;2022-07-19T01:14:00;100042.81;;;19.92;100.00
2681;BME280;1350;42.134;24.708;2022-07-19T01:16:26;100043.47;;;20.05;100.00
2681;BME280;1350;42.134;24.708;2022-07-19T01:18:53;100041.13;;;20.11;99.70
2681;BME280;1350;42.134;24.708;2022-07-19T01:21:22;100037.38;;;20.14;98.58
2681;BME280;1350;42.134;24.708;2022-07-19T01:23:49;100032.09;;;20.13;98.81
2681;BME280;1350;42.134;24.708;2022-07-19T01:26:16;100033.19;;;20.21;97.72
2681;BME280;1350;42.134;24.708;2022-07-19T01:28:44;100033.91;;;20.23;97.13
2681;BME280;1350;42.134;24.708;2022-07-19T01:31:11;100034.56;;;20.36;95.97
2681;BME280;1350;42.134;24.708;2022-07-19T01:33:39;100034.00;;;20.33;96.63
2681;BME280;1350;42.134;24.708;2022-07-19T01:36:07;100020.03;;;20.48;96.80
2681;BME280;1350;42.134;24.708;2022-07-19T01:38:35;100026.34;;;20.58;95.73
2681;BME280;1350;42.134;24.708;2022-07-19T01:41:03;100027.91;;;20.61;94.40
2681;BME280;1350;42.134;24.708;2022-07-19T01:43:29;100033.78;;;20.66;94.79
2681;BME280;1350;42.134;24.708;2022-07-19T01:45:56;100030.88;;;20.78;94.01
2681;BME280;1350;42.134;24.708;2022-07-19T01:48:24;100036.59;;;20.85;93.74
2681;BME280;1350;42.134;24.708;2022-07-19T01:50:50;100027.66;;;20.84;93.76
2681;BME280;1350;42.134;24.708;2022-07-19T01:53:17;100037.16;;;20.88;93.41
2681;BME280;1350;42.134;24.708;2022-07-19T01:55:45;100026.44;;;20.77;94.21
2681;BME280;1350;42.134;24.708;2022-07-19T01:58:12;100043.81;;;20.84;93.92
2681;BME280;1350;42.134;24.708;2022-07-19T02:00:39;100042.56;;;20.88;94.04
2681;BME280;1350;42.134;24.708;2022-07-19T02:03:06;100045.16;;;20.69;95.51
2681;BME280;1350;42.134;24.708;2022-07-19T02:05:32;100040.97;;;20.56;96.87
2681;BME280;1350;42.134;24.708;2022-07-19T02:08:00;100051.97;;;20.32;99.86
2681;BME280;1350;42.134;24.708;2022-07-19T02:10:27;100047.25;;;20.25;100.00
2681;BME280;1350;42.134;24.708;2022-07-19T02:12:55;100053.28;;;20.38;100.00
2681;BME280;1350;42.134;24.708;2022-07-19T02:15:22;100053.16;;;20.39;100.00
2681;BME280;1350;42.134;24.708;2022-07-19T02:17:48;100053.53;;;20.14;100.00
2681;BME280;1350;42.134;24.708;2022-07-19T02:20:15;100045.78;;;20.21;100.00
2681;BME280;1350;42.134;24.708;2022-07-19T02:22:42;100049.56;;;20.29;100.00
2681;BME280;1350;42.134;24.708;2022-07-19T02:25:09;100048.81;;;20.27;100.00
2681;BME280;1350;42.134;24.708;2022-07-19T02:27:36;100047.78;;;20.39;100.00
2681;BME280;1350;42.134;24.708;2022-07-19T02:30:05;100043.97;;;20.42;100.00
2681;BME280;1350;42.134;24.708;2022-07-19T02:32:32;100050.81;;;20.46;100.00
2681;BME280;1350;42.134;24.708;2022-07-19T02:34:59;100054.09;;;20.49;100.00
2681;BME280;1350;42.134;24.708;2022-07-19T02:37:26;100049.75;;;20.37;100.00
2681;BME280;1350;42.134;24.708;2022-07-19T02:39:52;100059.16;;;20.43;100.00
2681;BME280;1350;42.134;24.708;2022-07-19T02:42:19;100052.91;;;20.42;100.00
2681;BME280;1350;42.134;24.708;2022-07-19T02:44:46;100047.50;;;20.42;100.00
2681;BME280;1350;42.134;24.708;2022-07-19T02:47:14;100044.16;;;20.50;100.00
2681;BME280;1350;42.134;24.708;2022-07-19T02:49:41;100048.19;;;20.55;100.00
2681;BME280;1350;42.134;24.708;2022-07-19T02:52:07;100050.06;;;20.23;100.00
2681;BME280;1350;42.134;24.708;2022-07-19T02:54:34;100057.94;;;20.04;100.00
2681;BME280;1350;42.134;24.708;2022-07-19T02:57:01;100055.75;;;19.98;100.00
2681;BME280;1350;42.134;24.708;2022-07-19T02:59:28;100048.25;;;20.13;100.00
2681;BME280;1350;42.134;24.708;2022-07-19T03:01:55;100051.47;;;20.38;100.00
2681;BME280;1350;42.134;24.708;2022-07-19T03:04:23;100058.16;;;20.23;100.00
2681;BME280;1350;42.134;24.708;2022-07-19T03:06:49;100061.28;;;20.28;100.00
2681;BME280;1350;42.134;24.708;2022-07-19T03:09:16;100051.97;;;20.32;100.00
2681;BME280;1350;42.134;24.708;2022-07-19T03:11:43;100055.72;;;20.41;100.00
2681;BME280;1350;42.134;24.708;2022-07-19T03:14:10;100057.59;;;20.40;100.00
2681;BME280;1350;42.134;24.708;2022-07-19T03:16:37;100056.09;;;20.36;100.00
2681;BME280;1350;42.134;24.708;2022-07-19T03:19:03;100058.03;;;20.25;100.00
2681;BME280;1350;42.134;24.708;2022-07-19T03:21:32;100057.19;;;20.13;100.00
2681;BME280;1350;42.134;24.708;2022-07-19T03:23:58;100051.91;;;20.11;100.00
2681;BME280;1350;42.134;24.708;2022-07-19T03:26:25;100065.09;;;19.94;100.00
2681;BME280;1350;42.134;24.708;2022-07-19T03:28:52;100060.16;;;19.99;100.00
2681;BME280;1350;42.134;24.708;2022-07-19T03:31:19;100065.09;;;19.94;100.00
2681;BME280;1350;42.134;24.708;2022-07-19T03:33:46;100058.19;;;20.01;100.00
2681;BME280;1350;42.134;24.708;2022-07-19T03:36:12;100062.09;;;20.08;100.00
2681;BME280;1350;42.134;24.708;2022-07-19T03:38:40;100059.03;;;20.13;100.00
2681;BME280;1350;42.134;24.708;2022-07-19T03:41:07;100064.06;;;20.17;100.00
2681;BME280;1350;42.134;24.708;2022-07-19T03:43:34;100064.97;;;20.27;100.00
2681;BME280;1350;42.134;24.708;2022-07-19T03:46:03;100065.66;;;20.40;100.00
2681;BME280;1350;42.134;24.708;2022-07-19T03:48:30;100056.31;;;20.44;100.00
2681;BME280;1350;42.134;24.708;2022-07-19T03:50:56;100064.41;;;20.44;100.00
2681;BME280;1350;42.134;24.708;2022-07-19T03:53:23;100071.56;;;20.55;100.00
2681;BME280;1350;42.134;24.708;2022-07-19T03:55:51;100073.75;;;20.61;100.00
2681;BME280;1350;42.134;24.708;2022-07-19T03:58:18;100062.53;;;20.56;100.00
2681;BME280;1350;42.134;24.708;2022-07-19T04:00:45;100070.84;;;20.73;100.00
2681;BME280;1350;42.134;24.708;2022-07-19T04:03:12;100071.16;;;21.00;100.00
2681;BME280;1350;42.134;24.708;2022-07-19T04:05:39;100068.84;;;21.16;100.00
2681;BME280;1350;42.134;24.708;2022-07-19T04:08:06;100079.59;;;21.37;100.00
2681;BME280;1350;42.134;24.708;2022-07-19T04:10:33;100082.50;;;21.54;98.81
2681;BME280;1350;42.134;24.708;2022-07-19T04:13:01;100078.38;;;21.50;98.44
2681;BME280;1350;42.134;24.708;2022-07-19T04:15:28;100082.75;;;21.51;98.50
2681;BME280;1350;42.134;24.708;2022-07-19T04:17:54;100081.94;;;21.51;98.59
2681;BME280;1350;42.134;24.708;2022-07-19T04:20:21;100080.84;;;21.63;97.50
2681;BME280;1350;42.134;24.708;2022-07-19T04:22:51;100079.28;;;21.70;97.21
2681;BME280;1350;42.134;24.708;2022-07-19T04:25:18;100072.63;;;21.74;96.31
2681;BME280;1350;42.134;24.708;2022-07-19T04:27:44;100072.38;;;21.87;95.82
2681;BME280;1350;42.134;24.708;2022-07-19T04:30:14;100077.25;;;22.02;95.37
2681;BME280;1350;42.134;24.708;2022-07-19T04:32:40;100088.06;;;22.21;93.63
2681;BME280;1350;42.134;24.708;2022-07-19T04:35:08;100078.97;;;22.41;92.63
2681;BME280;1350;42.134;24.708;2022-07-19T04:37:34;100085.25;;;22.80;90.92
2681;BME280;1350;42.134;24.708;2022-07-19T04:40:02;100084.56;;;23.14;88.97
2681;BME280;1350;42.134;24.708;2022-07-19T04:42:28;100086.50;;;23.41;86.41
2681;BME280;1350;42.134;24.708;2022-07-19T04:44:55;100079.50;;;23.75;84.36
2681;BME280;1350;42.134;24.708;2022-07-19T04:47:23;100089.41;;;23.84;82.77
2681;BME280;1350;42.134;24.708;2022-07-19T04:49:50;100087.38;;;23.96;81.96
2681;BME280;1350;42.134;24.708;2022-07-19T04:52:17;100086.38;;;24.14;79.34
2681;BME280;1350;42.134;24.708;2022-07-19T04:54:43;100088.16;;;24.23;78.98
2681;BME280;1350;42.134;24.708;2022-07-19T04:57:10;100083.25;;;24.54;77.98
2681;BME280;1350;42.134;24.708;2022-07-19T04:59:38;100086.81;;;24.72;76.17
2681;BME280;1350;42.134;24.708;2022-07-19T05:02:05;100090.50;;;24.88;74.99
2681;BME280;1350;42.134;24.708;2022-07-19T05:04:34;100091.09;;;25.26;72.22
2681;BME280;1350;42.134;24.708;2022-07-19T05:07:00;100088.75;;;25.31;70.20
2681;BME280;1350;42.134;24.708;2022-07-19T05:09:28;100088.31;;;25.43;69.90
2681;BME280;1350;42.134;24.708;2022-07-19T05:11:55;100094.16;;;25.56;67.50
2681;BME280;1350;42.134;24.708;2022-07-19T05:14:22;100091.69;;;25.71;66.44
2681;BME280;1350;42.134;24.708;2022-07-19T05:16:49;100086.09;;;25.72;66.42
2681;BME280;1350;42.134;24.708;2022-07-19T05:19:17;100093.88;;;26.09;65.04
2681;BME280;1350;42.134;24.708;2022-07-19T05:21:45;100089.69;;;26.30;63.57
2681;BME280;1350;42.134;24.708;2022-07-19T05:24:12;100079.13;;;26.27;63.17
2681;BME280;1350;42.134;24.708;2022-07-19T05:26:39;100083.09;;;26.65;61.73
2681;BME280;1350;42.134;24.708;2022-07-19T05:29:05;100089.69;;;26.46;61.81
2681;BME280;1350;42.134;24.708;2022-07-19T05:31:32;100081.91;;;26.84;60.95
2681;BME280;1350;42.134;24.708;2022-07-19T05:33:59;100084.75;;;27.30;59.51
2681;BME280;1350;42.134;24.708;2022-07-19T05:36:26;100090.47;;;27.59;57.39
2681;BME280;1350;42.134;24.708;2022-07-19T05:38:54;100088.72;;;27.66;56.49
2681;BME280;1350;42.134;24.708;2022-07-19T05:41:21;100088.28;;;27.47;56.17
2681;BME280;1350;42.134;24.708;2022-07-19T05:43:50;100080.00;;;27.71;55.72
2681;BME280;1350;42.134;24.708;2022-07-19T05:46:17;100087.13;;;27.80;55.22
2681;BME280;1350;42.134;24.708;2022-07-19T05:48:44;100090.72;;;28.11;54.82
2681;BME280;1350;42.134;24.708;2022-07-19T05:51:11;100094.59;;;28.55;52.81
2681;BME280;1350;42.134;24.708;2022-07-19T05:53:38;100097.22;;;28.86;52.39
2681;BME280;1350;42.134;24.708;2022-07-19T05:56:07;100095.59;;;29.14;51.69
2681;BME280;1350;42.134;24.708;2022-07-19T05:58:34;100104.06;;;29.41;50.63
2681;BME280;1350;42.134;24.708;2022-07-19T06:01:01;100097.81;;;29.62;49.62
2681;BME280;1350;42.134;24.708;2022-07-19T06:03:49;100091.38;;;29.99;49.36
2681;BME280;1350;42.134;24.708;2022-07-19T06:06:16;100091.22;;;29.56;49.03
2681;BME280;1350;42.134;24.708;2022-07-19T06:08:44;100092.53;;;29.90;48.26
2681;BME280;1350;42.134;24.708;2022-07-19T06:11:13;100091.16;;;30.29;48.60
2681;BME280;1350;42.134;24.708;2022-07-19T06:13:40;100102.56;;;29.68;47.66
2681;BME280;1350;42.134;24.708;2022-07-19T06:16:07;100090.75;;;29.97;48.49
2681;BME280;1350;42.134;24.708;2022-07-19T06:18:34;100089.56;;;30.20;47.37
2681;BME280;1350;42.134;24.708;2022-07-19T06:21:02;100093.00;;;30.43;47.22
2681;BME280;1350;42.134;24.708;2022-07-19T06:23:29;100086.34;;;30.52;46.84
2681;BME280;1350;42.134;24.708;2022-07-19T06:25:56;100093.72;;;30.52;46.97
2681;BME280;1350;42.134;24.708;2022-07-19T06:28:24;100085.25;;;30.47;46.53
2681;BME280;1350;42.134;24.708;2022-07-19T06:30:51;100087.44;;;30.01;47.22
2681;BME280;1350;42.134;24.708;2022-07-19T06:33:18;100091.31;;;29.92;47.85
2681;BME280;1350;42.134;24.708;2022-07-19T06:35:45;100089.47;;;30.49;47.32
2681;BME280;1350;42.134;24.708;2022-07-19T06:38:12;100089.50;;;29.85;47.23
2681;BME280;1350;42.134;24.708;2022-07-19T06:40:39;100086.09;;;30.12;48.36
2681;BME280;1350;42.134;24.708;2022-07-19T06:43:06;100081.78;;;30.59;48.63
2681;BME280;1350;42.134;24.708;2022-07-19T06:45:35;100083.53;;;30.67;46.88
2681;BME280;1350;42.134;24.708;2022-07-19T09:10:18;99997.66;;;32.83;31.81
2681;BME280;1350;42.134;24.708;2022-07-19T09:13:03;100001.25;;;32.57;32.09
2681;BME280;1350;42.134;24.708;2022-07-19T09:15:45;99999.00;;;31.87;32.76
2681;BME280;1350;42.134;24.708;2022-07-19T09:18:15;99982.50;;;30.99;33.75
2681;BME280;1350;42.134;24.708;2022-07-19T09:20:43;99989.78;;;32.21;32.74
2681;BME280;1350;42.134;24.708;2022-07-19T09:23:10;99994.72;;;31.78;32.60
2681;BME280;1350;42.134;24.708;2022-07-19T09:25:40;99982.75;;;31.11;33.53
2681;BME280;1350;42.134;24.708;2022-07-19T09:28:08;99979.69;;;31.68;33.66
2681;BME280;1350;42.134;24.708;2022-07-19T09:30:38;99980.78;;;31.33;33.34
2681;BME280;1350;42.134;24.708;2022-07-19T09:33:08;99979.22;;;32.18;33.04
2681;BME280;1350;42.134;24.708;2022-07-19T09:35:37;99979.03;;;32.85;32.38
2681;BME280;1350;42.134;24.708;2022-07-19T09:38:15;99974.53;;;33.42;32.43
2681;BME280;1350;42.134;24.708;2022-07-19T09:40:43;99979.69;;;32.87;32.01
2681;BME280;1350;42.134;24.708;2022-07-19T09:43:10;99982.00;;;31.64;32.83
2681;BME280;1350;42.134;24.708;2022-07-19T09:45:37;99969.34;;;31.23;33.54
2681;BME280;1350;42.134;24.708;2022-07-19T09:48:04;99967.28;;;31.78;33.28
2681;BME280;1350;42.134;24.708;2022-07-19T09:50:31;99978.31;;;31.38;33.61
2681;BME280;1350;42.134;24.708;2022-07-19T09:52:59;99971.06;;;30.96;33.83
2681;BME280;1350;42.134;24.708;2022-07-19T09:55:28;99986.91;;;30.10;33.93
2681;BME280;1350;42.134;24.708;2022-07-19T09:57:59;99978.66;;;30.45;33.44
2681;BME280;1350;42.134;24.708;2022-07-19T10:00:27;99968.91;;;30.64;34.25
2681;BME280;1350;42.134;24.708;2022-07-19T10:02:56;99978.66;;;30.73;34.16
2681;BME280;1350;42.134;24.708;2022-07-19T10:05:23;99970.19;;;30.19;33.95
2681;BME280;1350;42.134;24.708;2022-07-19T10:07:51;99975.78;;;30.11;34.31
2681;BME280;1350;42.134;24.708;2022-07-19T10:10:19;99966.56;;;30.33;34.54
2681;BME280;1350;42.134;24.708;2022-07-19T10:12:47;99962.34;;;30.16;35.71
2681;BME280;1350;42.134;24.708;2022-07-19T10:15:18;99956.66;;;31.15;34.32
2681;BME280;1350;42.134;24.708;2022-07-19T10:18:01;99951.22;;;30.87;34.02
2681;BME280;1350;42.134;24.708;2022-07-19T10:20:29;99947.69;;;31.00;34.13
2681;BME280;1350;42.134;24.708;2022-07-19T10:22:58;99956.81;;;30.52;34.61
2681;BME280;1350;42.134;24.708;2022-07-19T10:25:38;99943.19;;;30.16;35.90
2681;BME280;1350;42.134;24.708;2022-07-19T10:28:06;99951.81;;;30.13;34.99
2681;BME280;1350;42.134;24.708;2022-07-19T10:30:53;99947.81;;;29.59;35.68
2681;BME280;1350;42.134;24.708;2022-07-19T10:33:29;99946.44;;;30.20;35.21
2681;BME280;1350;42.134;24.708;2022-07-19T10:35:56;99934.47;;;30.76;35.02
2681;BME280;1350;42.134;24.708;2022-07-19T10:38:23;99938.50;;;31.14;33.96
2681;BME280;1350;42.134;24.708;2022-07-19T10:40:52;99935.78;;;31.21;33.78
2681;BME280;1350;42.134;24.708;2022-07-19T10:43:22;99925.97;;;30.43;34.02
2681;BME280;1350;42.134;24.708;2022-07-19T10:46:11;99923.75;;;31.15;34.17
2681;BME280;1350;42.134;24.708;2022-07-19T10:48:40;99923.09;;;31.47;33.67
2681;BME280;1350;42.134;24.708;2022-07-19T10:51:07;99925.94;;;31.80;33.10
2681;BME280;1350;42.134;24.708;2022-07-19T10:53:54;99915.41;;;31.90;33.62
2681;BME280;1350;42.134;24.708;2022-07-19T10:56:24;99921.63;;;31.17;34.00
2681;BME280;1350;42.134;24.708;2022-07-19T10:58:53;99901.69;;;30.13;35.49
2681;BME280;1350;42.134;24.708;2022-07-19T11:01:23;99906.69;;;30.51;34.86
2681;BME280;1350;42.134;24.708;2022-07-19T11:03:51;99913.66;;;30.81;34.87
2681;BME280;1350;42.134;24.708;2022-07-19T11:06:21;99904.09;;;31.05;35.06
2681;BME280;1350;42.134;24.708;2022-07-19T11:08:52;99909.78;;;31.51;35.36
2681;BME280;1350;42.134;24.708;2022-07-19T11:11:20;99908.09;;;31.02;33.80
2681;BME280;1350;42.134;24.708;2022-07-19T11:13:48;99897.50;;;30.93;33.95
2681;BME280;1350;42.134;24.708;2022-07-19T11:16:16;99888.38;;;31.27;33.85
2681;BME280;1350;42.134;24.708;2022-07-19T11:18:45;99892.66;;;31.29;34.59
2681;BME280;1350;42.134;24.708;2022-07-19T11:21:13;99879.78;;;31.30;33.76
2681;BME280;1350;42.134;24.708;2022-07-19T11:23:41;99893.28;;;30.90;35.16
2681;BME280;1350;42.134;24.708;2022-07-19T11:26:09;99894.38;;;30.68;35.18
2681;BME280;1350;42.134;24.708;2022-07-19T11:28:37;99881.41;;;30.83;35.08
2681;BME280;1350;42.134;24.708;2022-07-19T11:31:12;99883.31;;;30.55;35.35
2681;BME280;1350;42.134;24.708;2022-07-19T11:33:39;99881.97;;;30.38;34.70
2681;BME280;1350;42.134;24.708;2022-07-19T11:36:08;99878.69;;;30.28;36.53
2681;BME280;1350;42.134;24.708;2022-07-19T11:38:37;99882.09;;;30.30;35.35
2681;BME280;1350;42.134;24.708;2022-07-19T11:41:08;99874.78;;;30.71;35.09
2681;BME280;1350;42.134;24.708;2022-07-19T11:43:35;99863.97;;;31.32;34.15
2681;BME280;1350;42.134;24.708;2022-07-19T11:46:02;99870.59;;;31.57;33.33
2681;BME280;1350;42.134;24.708;2022-07-19T11:48:30;99865.78;;;31.85;33.71
2681;BME280;1350;42.134;24.708;2022-07-19T11:50:58;99862.53;;;31.49;33.97
2681;BME280;1350;42.134;24.708;2022-07-19T11:53:27;99864.81;;;31.32;33.75
2681;BME280;1350;42.134;24.708;2022-07-19T11:55:53;99852.72;;;31.20;33.63
2681;BME280;1350;42.134;24.708;2022-07-19T11:58:21;99855.53;;;31.33;34.02
2681;BME280;1350;42.134;24.708;2022-07-19T12:00:48;99844.38;;;31.48;34.31
2681;BME280;1350;42.134;24.708;2022-07-19T12:03:16;99852.00;;;31.59;34.31
2681;BME280;1350;42.134;24.708;2022-07-19T12:05:54;99848.38;;;31.32;33.48
2681;BME280;1350;42.134;24.708;2022-07-19T12:08:33;99838.25;;;30.85;34.03
2681;BME280;1350;42.134;24.708;2022-07-19T12:11:01;99841.53;;;30.74;34.22
2681;BME280;1350;42.134;24.708;2022-07-19T12:13:30;99831.66;;;31.27;33.57
2681;BME280;1350;42.134;24.708;2022-07-19T12:15:58;99833.22;;;31.43;33.45
2681;BME280;1350;42.134;24.708;2022-07-19T12:18:45;99833.75;;;31.25;33.88
2681;BME280;1350;42.134;24.708;2022-07-19T12:21:38;99825.66;;;31.64;33.72
2681;BME280;1350;42.134;24.708;2022-07-19T12:24:19;99821.84;;;31.46;33.70
2681;BME280;1350;42.134;24.708;2022-07-19T12:26:58;99831.19;;;31.17;34.40
2681;BME280;1350;42.134;24.708;2022-07-19T12:29:27;99820.34;;;31.50;34.48
2681;BME280;1350;42.134;24.708;2022-07-19T12:31:56;99813.25;;;31.88;33.64
2681;BME280;1350;42.134;24.708;2022-07-19T12:34:23;99808.38;;;32.16;33.18
2681;BME280;1350;42.134;24.708;2022-07-19T12:36:51;99811.75;;;32.44;33.14
2681;BME280;1350;42.134;24.708;2022-07-19T12:39:22;99799.63;;;32.64;33.10
2681;BME280;1350;42.134;24.708;2022-07-19T12:42:07;99812.78;;;32.43;32.83
2681;BME280;1350;42.134;24.708;2022-07-19T12:44:35;99806.88;;;31.61;32.96
2681;BME280;1350;42.134;24.708;2022-07-19T12:47:02;99798.03;;;32.18;32.75
2681;BME280;1350;42.134;24.708;2022-07-19T12:49:42;99791.25;;;32.40;32.25
2681;BME280;1350;42.134;24.708;2022-07-19T12:52:09;99801.03;;;31.90;33.11
2681;BME280;1350;42.134;24.708;2022-07-19T12:54:38;99794.63;;;31.57;33.35
2681;BME280;1350;42.134;24.708;2022-07-19T12:57:05;99789.84;;;31.98;32.40
2681;BME280;1350;42.134;24.708;2022-07-19T12:59:32;99791.91;;;32.16;32.25
2681;BME280;1350;42.134;24.708;2022-07-19T13:02:09;99796.31;;;32.23;32.46
2681;BME280;1350;42.134;24.708;2022-07-19T13:04:37;99788.53;;;31.88;32.68
2681;BME280;1350;42.134;24.708;2022-07-19T13:07:04;99783.25;;;32.19;32.89
2681;BME280;1350;42.134;24.708;2022-07-19T13:09:31;99779.22;;;32.41;32.83
2681;BME280;1350;42.134;24.708;2022-07-19T13:11:59;99778.28;;;32.73;32.63
2681;BME280;1350;42.134;24.708;2022-07-19T13:14:26;99773.44;;;32.62;31.60
2681;BME280;1350;42.134;24.708;2022-07-19T13:16:53;99775.66;;;32.27;32.59
2681;BME280;1350;42.134;24.708;2022-07-19T13:19:19;99775.19;;;32.43;32.59
2681;BME280;1350;42.134;24.708;2022-07-19T13:21:47;99768.06;;;32.03;32.72
2681;BME280;1350;42.134;24.708;2022-07-19T13:24:14;99769.09;;;32.15;31.73
2681;BME280;1350;42.134;24.708;2022-07-19T13:26:40;99765.69;;;32.33;32.64
2681;BME280;1350;42.134;24.708;2022-07-19T13:29:09;99750.03;;;32.46;32.83
2681;BME280;1350;42.134;24.708;2022-07-19T13:31:36;99756.00;;;32.24;33.10
2681;BME280;1350;42.134;24.708;2022-07-19T13:34:03;99752.88;;;32.07;33.62
2681;BME280;1350;42.134;24.708;2022-07-19T13:36:30;99750.13;;;32.07;33.17
2681;BME280;1350;42.134;24.708;2022-07-19T13:38:57;99751.16;;;32.06;32.79
2681;BME280;1350;42.134;24.708;2022-07-19T13:41:23;99756.00;;;32.24;32.31
2681;BME280;1350;42.134;24.708;2022-07-19T13:43:50;99745.41;;;32.47;32.06
2681;BME280;1350;42.134;24.708;2022-07-19T13:46:20;99747.69;;;33.07;32.15
2681;BME280;1350;42.134;24.708;2022-07-19T13:48:47;99750.53;;;33.25;31.30
2681;BME280;1350;42.134;24.708;2022-07-19T13:51:13;99741.09;;;33.15;31.28
2681;BME280;1350;42.134;24.708;2022-07-19T13:53:40;99732.00;;;33.76;30.74
2681;BME280;1350;42.134;24.708;2022-07-19T13:56:07;99731.91;;;34.50;30.76
2681;BME280;1350;42.134;24.708;2022-07-19T13:58:34;99738.63;;;34.90;30.15
2681;BME280;1350;42.134;24.708;2022-07-19T14:01:01;99735.28;;;35.59;29.48
2681;BME280;1350;42.134;24.708;2022-07-19T14:03:29;99731.94;;;35.27;29.55
2681;BME280;1350;42.134;24.708;2022-07-19T14:05:56;99731.38;;;33.12;30.35
2681;BME280;1350;42.134;24.708;2022-07-19T14:08:23;99733.03;;;31.60;31.63
2681;BME280;1350;42.134;24.708;2022-07-19T14:10:49;99737.88;;;31.38;32.50
2681;BME280;1350;42.134;24.708;2022-07-19T14:13:16;99719.53;;;31.45;31.88
2681;BME280;1350;42.134;24.708;2022-07-19T14:15:43;99720.31;;;32.11;32.25
2681;BME280;1350;42.134;24.708;2022-07-19T14:18:10;99721.75;;;32.46;32.36
2681;BME280;1350;42.134;24.708;2022-07-19T14:20:40;99725.31;;;32.53;31.51
2681;BME280;1350;42.134;24.708;2022-07-19T14:23:08;99713.31;;;32.28;31.53
2681;BME280;1350;42.134;24.708;2022-07-19T14:25:35;99709.97;;;32.13;31.97
2681;BME280;1350;42.134;24.708;2022-07-19T14:28:02;99724.53;;;32.39;31.58
2681;BME280;1350;42.134;24.708;2022-07-19T14:30:29;99714.88;;;32.04;32.50
2681;BME280;1350;42.134;24.708;2022-07-19T14:32:56;99710.66;;;31.37;32.70
2681;BME280;1350;42.134;24.708;2022-07-19T14:35:23;99707.50;;;31.85;33.08
2681;BME280;1350;42.134;24.708;2022-07-19T14:37:51;99705.56;;;32.12;32.57
2681;BME280;1350;42.134;24.708;2022-07-19T14:40:18;99697.03;;;32.33;31.75
2681;BME280;1350;42.134;24.708;2022-07-19T14:42:45;99694.94;;;32.28;31.59
2681;BME280;1350;42.134;24.708;2022-07-19T14:45:12;99691.78;;;32.38;32.31
2681;BME280;1350;42.134;24.708;2022-07-19T14:47:39;99694.59;;;31.99;31.73
2681;BME280;1350;42.134;24.708;2022-07-19T14:50:08;99695.06;;;31.57;31.59
2681;BME280;1350;42.134;24.708;2022-07-19T14:52:36;99681.75;;;31.67;31.98
2681;BME280;1350;42.134;24.708;2022-07-19T14:55:05;99684.03;;;32.02;32.63
2681;BME280;1350;42.134;24.708;2022-07-19T14:57:32;99682.53;;;32.13;32.51
2681;BME280;1350;42.134;24.708;2022-07-19T14:59:59;99680.69;;;31.81;32.31
2681;BME280;1350;42.134;24.708;2022-07-19T15:02:26;99678.41;;;31.32;31.83
2681;BME280;1350;42.134;24.708;2022-07-19T15:04:53;99675.88;;;31.31;32.73
2681;BME280;1350;42.134;24.708;2022-07-19T15:07:22;99682.81;;;31.46;33.17
2681;BME280;1350;42.134;24.708;2022-07-19T15:09:49;99682.97;;;31.05;32.93
2681;BME280;1350;42.134;24.708;2022-07-19T15:12:17;99698.13;;;31.01;33.90
2681;BME280;1350;42.134;24.708;2022-07-19T15:14:44;99673.78;;;30.59;33.58
2681;BME280;1350;42.134;24.708;2022-07-19T15:17:11;99682.06;;;30.79;33.67
2681;BME280;1350;42.134;24.708;2022-07-19T15:19:37;99670.97;;;31.20;33.67
2681;BME280;1350;42.134;24.708;2022-07-19T15:22:04;99678.94;;;31.01;33.48
2681;BME280;1350;42.134;24.708;2022-07-19T15:24:31;99679.16;;;30.93;33.30
2681;BME280;1350;42.134;24.708;2022-07-19T15:26:58;99679.38;;;30.98;33.80
2681;BME280;1350;42.134;24.708;2022-07-19T15:29:26;99676.81;;;30.84;32.66